Flight Track Log - Related Links

Times and Time Zones

All times are in EDT time to prevent confusion due to time zone crossing. See the N531QS flight status page for this flight to view local times or setup timezone preferences in your user account.

Time Position Orientation Groundspeed Altitude Reporting Facility
EDT Latitude Longitude Course Direction KTS MPH feet Rate Location/Type
Sun 08:20:05 PM 39.0333 -77.6000 322° Northwest 290 334 5,000  Level Potomac TRACON
Sun 08:20:59 PM 39.0833 -77.5500 38° Northeast 289 333 5,900 1,947 Climbing Potomac TRACON
Sun 08:21:59 PM 39.1333 -77.4667 52° Northeast 300 345 8,700 1,537 Climbing Potomac TRACON
Sun 08:23:00 PM 39.1667 -77.3667 67° East 306 352 9,000 149 Climbing Potomac TRACON
Sun 08:24:00 PM 39.3332 -77.0328 104° East  Level FlightAware Approximate
Sun 08:24:00 PM 39.2167 -77.2833 52° Northeast 300 345 9,000  Level Potomac TRACON
Sun 08:25:35 PM 39.2806 -77.1494 58° Northeast 304 350 9,300 1,577 Climbing Washington Center
Sun 08:26:36 PM 39.3297 -77.0511 57° Northeast 304 350 13,100 2,975 Climbing Washington Center
Sun 08:27:34 PM 39.3147 -76.9194 98° East 320 368 15,200 2,000 Climbing Washington Center
Sun 08:28:33 PM 39.2767 -76.7686 108° East 369 425 17,000 908 Climbing Washington Center
Sun 08:29:33 PM 39.2444 -76.6206 106° East 406 467 17,000  Level Washington Center
Sun 08:30:35 PM 39.2436 -76.4625 90° East 427 491 17,000  Level Washington Center
Sun 08:31:35 PM 39.2511 -76.3044 86° East 432 497 17,000  Level Washington Center
Sun 08:32:33 PM 39.2894 -76.1439 73° East 432 497 17,000  Level Washington Center
Sun 08:33:33 PM 39.3503 -76.0264 56° Northeast 404 465 17,000  Level Washington Center
Sun 08:34:34 PM 39.4317 -75.9381 40° Northeast 382 440 17,000  Level Washington Center
Sun 08:36:18 PM 39.5833 -75.8000 35° Northeast 386 444 17,000 -585 Level Philadelphia TRACON
Sun 08:37:18 PM 39.6667 -75.7167 38° Northeast 375 432 15,400 -1,684 Descending Philadelphia TRACON
Sun 08:38:12 PM 39.7500 -75.6500 32° Northeast 363 418 13,800 -1,210 Descending Philadelphia TRACON
Sun 08:39:17 PM 39.8333 -75.5667 38° Northeast 342 394 13,000 -400 Descending Philadelphia TRACON
Sun 08:40:12 PM 39.9000 -75.5000 37° Northeast 347 399 13,000  Level Philadelphia TRACON
Sun 08:41:11 PM 39.9833 -75.4333 32° Northeast 348 400 13,000  Level Philadelphia TRACON
Sun 08:42:12 PM 40.0667 -75.3500 37° Northeast 350 403 13,000  Level Philadelphia TRACON
Sun 08:43:18 PM 40.1500 -75.2833 31° Northeast 351 404 13,000 -619 Level Philadelphia TRACON
Sun 08:44:18 PM 40.2167 -75.2000 44° Northeast 335 386 11,700 -1,589 Descending Philadelphia TRACON
Sun 08:46:23 PM 40.3667 -75.0667 34° Northeast 295 339 8,100 -1,589 Descending New York TRACON
Sun 08:47:23 PM 40.4167 -74.9833 52° Northeast 297 342 6,800 -1,250 Descending New York TRACON
Sun 08:48:23 PM 40.4667 -74.9000 52° Northeast 283 326 5,600 -1,200 Descending New York TRACON
Sun 08:49:23 PM 40.5167 -74.8333 45° Northeast 275 316 4,400 -800 Descending New York TRACON
Sun 08:50:23 PM 40.5667 -74.7667 45° Northeast 272 313 4,000 -190 Descending New York TRACON
Sun 08:51:29 PM 40.6333 -74.7000 37° Northeast 274 315 4,000  Level New York TRACON
Sun 08:52:29 PM 40.7000 -74.6500 30° Northeast 272 313 4,000  Level New York TRACON
Sun 08:53:23 PM 40.7667 -74.6167 21° North 273 314 4,000  Level New York TRACON
Sun 08:54:23 PM 40.8333 -74.5667 30° Northeast 270 311 4,000 -100 Level New York TRACON
Sun 08:55:23 PM 40.9000 -74.5167 30° Northeast 274 315 3,800 -500 Descending New York TRACON
Sun 08:56:23 PM 40.9500 -74.4333 52° Northeast 271 312 3,000 -900 Descending New York TRACON
Sun 08:57:23 PM 40.9833 -74.3500 62° Northeast 261 300 2,000 -526 Descending New York TRACON
Sun 08:58:17 PM 41.0000 -74.2833 72° East 216 249 2,000  Level New York TRACON
Sun 08:59:17 PM 41.0167 -74.2167 72° East 221 254 2,000  Level New York TRACON
Sun 09:00:17 PM 41.0167 -74.1333 90° East 216 249 2,000  Level New York TRACON
Sun 09:01:17 PM 41.0000 -74.0667 108° East 195 224 2,000 -50 Level New York TRACON
Sun 09:02:17 PM 40.9500 -74.0500 166° South 177 204 1,900 -450 Descending New York TRACON
Sun 09:03:17 PM 40.9167 -74.0500 180° South 145 167 1,100 -750 Descending New York TRACON
Sun 09:04:17 PM 40.8667 -74.0500 180° South 121 139 400 -700 Descending New York TRACON
Sun 09:06:00 PM 40.8500 -74.0500 175° South  Level FlightAware Approximate
Sun 09:13:00 PM 40.8501 -74.0608 175° South  Level Estimated

Login

Don't have an account? Register now (free) for customized features, flight alerts, and more!